createdAt,value
2022-10-06T00:00:49.900Z,100636.98
2022-10-06T00:03:32.886Z,100639.63
2022-10-06T00:06:00.944Z,100640.55
2022-10-06T00:08:28.068Z,100639.13
2022-10-06T00:10:55.857Z,100642.29
2022-10-06T00:13:23.983Z,100643.30
2022-10-06T00:15:50.905Z,100645.80
2022-10-06T00:18:17.465Z,100649.65
2022-10-06T00:20:44.015Z,100642.53
2022-10-06T00:23:11.402Z,100645.48
2022-10-06T00:25:37.848Z,100646.67
2022-10-06T00:28:04.416Z,100647.25
2022-10-06T00:30:31.039Z,100641.52
2022-10-06T00:33:04.004Z,100644.70
2022-10-06T00:35:33.872Z,100645.89
2022-10-06T00:38:02.312Z,100645.41
2022-10-06T00:40:31.700Z,100649.75
2022-10-06T00:43:05.691Z,100650.17
2022-10-06T00:45:40.497Z,100653.87
2022-10-06T00:48:17.692Z,100655.20
2022-10-06T00:50:46.083Z,100654.74
2022-10-06T00:53:16.153Z,100656.05
2022-10-06T00:55:43.603Z,100654.38
2022-10-06T00:58:10.628Z,100652.11
2022-10-06T01:00:39.435Z,100650.71
2022-10-06T01:03:10.755Z,100652.32
2022-10-06T01:05:43.612Z,100650.48
2022-10-06T01:08:10.252Z,100655.84
2022-10-06T01:10:37.428Z,100651.89
2022-10-06T01:13:06.239Z,100652.25
2022-10-06T01:15:36.661Z,100654.65
2022-10-06T01:18:17.259Z,100658.28
2022-10-06T01:21:07.083Z,100656.34
2022-10-06T01:23:35.832Z,100660.52
2022-10-06T01:26:07.116Z,100662.88
2022-10-06T01:28:34.388Z,100661.19
2022-10-06T01:31:04.001Z,100659.98
2022-10-06T01:33:35.432Z,100656.92
2022-10-06T01:36:04.632Z,100655.64
2022-10-06T01:38:31.881Z,100661.32
2022-10-06T01:41:03.522Z,100661.05
2022-10-06T01:43:30.539Z,100659.65
2022-10-06T01:45:59.012Z,100663.50
2022-10-06T01:48:26.989Z,100667.05
2022-10-06T01:50:57.478Z,100665.17
2022-10-06T01:53:23.992Z,100670.45
2022-10-06T01:55:51.544Z,100671.58
2022-10-06T01:58:25.491Z,100671.36
2022-10-06T02:00:53.845Z,100676.08
2022-10-06T02:03:20.366Z,100676.73
2022-10-06T02:05:47.717Z,100678.69
2022-10-06T02:08:14.388Z,100683.98
2022-10-06T02:10:42.296Z,100677.65
2022-10-06T02:13:17.156Z,100684.71
2022-10-06T02:15:44.020Z,100682.05
2022-10-06T02:18:10.621Z,100681.98
2022-10-06T02:20:38.078Z,100683.02
2022-10-06T02:23:05.031Z,100684.50
2022-10-06T02:25:31.564Z,100688.80
2022-10-06T02:28:00.009Z,100691.80
2022-10-06T02:30:27.189Z,100698.77
2022-10-06T02:32:57.105Z,100698.77
2022-10-06T02:35:26.290Z,100702.39
2022-10-06T02:37:55.148Z,100707.31
2022-10-06T02:40:24.968Z,100711.27
2022-10-06T02:42:51.439Z,100710.77
2022-10-06T02:45:20.795Z,100709.94
2022-10-06T02:47:49.109Z,100713.08
2022-10-06T02:50:18.528Z,100718.70
2022-10-06T02:52:45.245Z,100717.93
2022-10-06T02:55:13.486Z,100722.60
2022-10-06T02:57:39.956Z,100725.19
2022-10-06T03:00:10.342Z,100727.38
2022-10-06T03:02:40.006Z,100728.31
2022-10-06T03:05:07.552Z,100731.84
2022-10-06T03:07:34.602Z,100728.39
2022-10-06T03:10:03.086Z,100729.08
2022-10-06T03:12:32.454Z,100726.46
2022-10-06T03:14:59.615Z,100734.61
2022-10-06T03:17:28.460Z,100736.67
2022-10-06T03:19:59.445Z,100741.84
2022-10-06T03:22:36.058Z,100748.17
2022-10-06T03:25:03.509Z,100748.73
2022-10-06T03:27:30.009Z,100750.89
2022-10-06T03:29:59.684Z,100751.52
2022-10-06T03:32:27.496Z,100755.51
2022-10-06T03:34:54.532Z,100755.52
2022-10-06T03:37:22.287Z,100756.63
2022-10-06T03:39:50.279Z,100759.58
2022-10-06T03:42:19.550Z,100767.48
2022-10-06T03:44:47.028Z,100766.31
2022-10-06T03:47:17.202Z,100768.88
2022-10-06T03:49:46.759Z,100771.05
2022-10-06T03:52:14.484Z,100772.55
2022-10-06T03:54:41.258Z,100779.13
2022-10-06T03:57:08.689Z,100775.89
2022-10-06T03:59:36.326Z,100785.53
2022-10-06T04:02:04.686Z,100790.46
2022-10-06T04:04:34.861Z,100790.09
2022-10-06T04:07:06.155Z,100788.64
2022-10-06T04:09:32.749Z,100789.75
2022-10-06T04:12:01.213Z,100789.25
2022-10-06T04:14:29.166Z,100788.02
2022-10-06T04:16:57.070Z,100791.14
2022-10-06T04:19:35.216Z,100792.04
2022-10-06T04:22:02.352Z,100795.32
2022-10-06T04:24:32.180Z,100798.88
2022-10-06T04:27:19.286Z,100801.00
2022-10-06T04:30:03.715Z,100799.21
2022-10-06T04:32:33.213Z,100801.95
2022-10-06T04:35:02.823Z,100806.67
2022-10-06T04:37:30.545Z,100806.23
2022-10-06T04:39:58.709Z,100818.02
2022-10-06T04:42:25.984Z,100822.37
2022-10-06T04:44:52.695Z,100828.14
2022-10-06T04:47:20.411Z,100829.77
2022-10-06T04:49:49.243Z,100832.77
2022-10-06T04:52:16.497Z,100840.23
2022-10-06T04:54:42.972Z,100843.40
2022-10-06T04:57:09.536Z,100851.28
2022-10-06T04:59:56.283Z,100852.46
2022-10-06T05:02:25.344Z,100855.17
2022-10-06T05:04:56.481Z,100854.02
2022-10-06T05:07:25.046Z,100855.13
2022-10-06T05:09:53.008Z,100862.80
2022-10-06T05:12:19.490Z,100864.38
2022-10-06T05:14:46.112Z,100860.40
2022-10-06T05:17:12.812Z,100859.40
2022-10-06T05:19:39.355Z,100862.22
2022-10-06T05:22:06.984Z,100860.83
2022-10-06T05:24:35.253Z,100864.60
2022-10-06T05:27:03.814Z,100879.18
2022-10-06T05:29:31.678Z,100880.23
2022-10-06T05:31:58.292Z,100874.52
2022-10-06T05:34:25.674Z,100888.70
2022-10-06T05:36:54.178Z,100890.30
2022-10-06T05:39:21.153Z,100892.19
2022-10-06T05:41:57.223Z,100895.30
2022-10-06T05:44:25.082Z,100902.14
2022-10-06T05:46:51.680Z,100906.52
2022-10-06T05:49:20.831Z,100913.98
2022-10-06T05:51:52.808Z,100914.79
2022-10-06T05:54:24.321Z,100917.79
2022-10-06T05:56:50.766Z,100922.85
2022-10-06T05:59:18.441Z,100922.38
2022-10-06T06:01:45.221Z,100924.80
2022-10-06T06:04:18.515Z,100933.55
2022-10-06T06:06:49.903Z,100936.85
2022-10-06T06:09:28.196Z,100943.44
2022-10-06T06:11:59.679Z,100942.65
2022-10-06T06:14:51.719Z,100950.37
2022-10-06T06:17:23.007Z,100958.25
2022-10-06T06:19:50.626Z,100956.24
2022-10-06T06:22:18.002Z,100957.65
2022-10-06T06:24:49.212Z,100960.52
2022-10-06T06:27:16.869Z,100962.52
2022-10-06T06:29:45.078Z,100965.81
2022-10-06T06:32:11.718Z,100965.36
2022-10-06T06:34:38.475Z,100967.80
2022-10-06T06:37:14.866Z,100971.16
2022-10-06T06:39:45.108Z,100977.56
2022-10-06T06:42:14.583Z,100980.59
2022-10-06T06:44:56.403Z,100983.34
2022-10-06T06:47:38.400Z,100987.70
2022-10-06T06:50:09.541Z,100992.90
2022-10-06T06:52:36.888Z,100999.73
2022-10-06T06:55:05.213Z,100999.79
2022-10-06T06:57:34.811Z,101009.20
2022-10-06T07:00:08.457Z,101010.13
2022-10-06T07:02:38.987Z,101010.55
2022-10-06T07:05:06.470Z,101010.48
2022-10-06T07:07:36.303Z,101012.35
2022-10-06T07:10:03.515Z,101017.95
2022-10-06T07:12:33.596Z,101022.44
2022-10-06T07:15:19.736Z,101022.69
2022-10-06T07:18:11.137Z,101027.27
2022-10-06T07:20:57.250Z,101033.55
2022-10-06T07:23:44.962Z,101034.35
2022-10-06T07:26:15.928Z,101040.73
2022-10-06T07:28:43.067Z,101047.45
2022-10-06T07:31:11.124Z,101046.89
2022-10-06T07:33:40.162Z,101051.50
2022-10-06T07:36:09.571Z,101052.58
2022-10-06T07:38:42.206Z,101056.32
2022-10-06T07:41:23.860Z,101060.95
2022-10-06T07:43:57.069Z,101063.88
2022-10-06T07:46:26.764Z,101066.70
2022-10-06T07:48:59.920Z,101067.98
2022-10-06T07:51:28.642Z,101073.61
2022-10-06T07:53:57.648Z,101078.92
2022-10-06T07:56:30.373Z,101081.19
2022-10-06T07:58:58.599Z,101085.46
2022-10-06T08:01:30.363Z,101090.25
2022-10-06T08:03:56.950Z,101096.63
2022-10-06T08:06:24.382Z,101100.11
2022-10-06T08:08:55.950Z,101102.52
2022-10-06T08:11:22.666Z,101111.30
2022-10-06T08:13:51.532Z,101110.32
2022-10-06T08:16:21.135Z,101111.16
2022-10-06T08:18:52.939Z,101121.62
2022-10-06T08:21:28.264Z,101122.91
2022-10-06T08:24:10.144Z,101136.84
2022-10-06T08:26:46.127Z,101141.57
2022-10-06T08:29:12.705Z,101148.34
2022-10-06T08:31:42.227Z,101146.77
2022-10-06T08:34:12.190Z,101148.66
2022-10-06T08:36:39.567Z,101148.20
2022-10-06T08:39:07.305Z,101144.34
2022-10-06T08:41:45.435Z,101149.64
2022-10-06T08:44:25.223Z,101161.46
2022-10-06T08:46:53.775Z,101172.83
2022-10-06T08:49:25.088Z,101181.20
2022-10-06T08:52:17.795Z,101179.04
2022-10-06T08:55:21.060Z,101176.90
2022-10-06T08:57:55.733Z,101187.70
2022-10-06T09:00:23.761Z,101184.05
2022-10-06T09:02:55.453Z,101192.68
2022-10-06T09:05:27.613Z,101196.33
2022-10-06T09:08:12.401Z,101204.52
2022-10-06T09:11:12.359Z,101211.95
2022-10-06T09:13:43.736Z,101209.91
2022-10-06T09:16:16.028Z,101213.42
2022-10-06T09:19:15.000Z,101214.88
2022-10-06T09:21:51.557Z,101221.64
2022-10-06T09:24:46.238Z,101220.55
2022-10-06T09:27:22.510Z,101229.30
2022-10-06T09:29:51.343Z,101234.80
2022-10-06T09:32:22.053Z,101238.05
2022-10-06T09:34:59.465Z,101241.29
2022-10-06T09:37:27.584Z,101249.17
2022-10-06T09:39:54.520Z,101255.67
2022-10-06T09:42:32.434Z,101264.95
2022-10-06T09:45:25.838Z,101272.41
2022-10-06T09:47:52.639Z,101276.67
2022-10-06T09:50:26.890Z,101276.23
2022-10-06T09:53:00.197Z,101281.15
2022-10-06T09:55:54.837Z,101287.73
2022-10-06T09:58:34.084Z,101297.20
2022-10-06T10:01:04.263Z,101296.73
2022-10-06T10:06:38.871Z,101297.92
2022-10-06T10:09:22.037Z,101301.20
2022-10-06T10:12:25.933Z,101303.38
2022-10-06T10:15:30.675Z,101308.39
2022-10-06T10:18:02.479Z,101312.21
2022-10-06T10:20:29.022Z,101320.32
2022-10-06T10:23:44.064Z,101321.45
2022-10-06T10:26:18.687Z,101326.01
2022-10-06T10:29:07.250Z,101331.34
2022-10-06T10:31:55.306Z,101337.09
2022-10-06T10:34:31.528Z,101343.39
2022-10-06T10:37:39.364Z,101344.80
2022-10-06T10:40:37.140Z,101349.29
2022-10-06T10:43:20.964Z,101354.65
2022-10-06T10:46:17.128Z,101357.20
2022-10-06T10:48:56.374Z,101359.92
2022-10-06T10:51:34.156Z,101363.48
2022-10-06T10:54:08.530Z,101364.21
2022-10-06T10:56:40.322Z,101365.60
2022-10-06T10:59:35.961Z,101373.06
2022-10-06T11:02:24.898Z,101372.15
2022-10-06T11:05:17.561Z,101374.76
2022-10-06T11:08:06.980Z,101378.33
2022-10-06T11:10:45.745Z,101379.25
2022-10-06T11:13:36.195Z,101386.19
2022-10-06T11:16:35.960Z,101385.52
2022-10-06T11:19:16.109Z,101386.67
2022-10-06T11:22:00.959Z,101388.55
2022-10-06T11:24:44.958Z,101388.98
2022-10-06T11:27:42.423Z,101383.20
2022-10-06T11:30:24.121Z,101380.63
2022-10-06T11:33:13.028Z,101385.60
2022-10-06T11:35:49.006Z,101386.73
2022-10-06T11:38:33.286Z,101390.19
2022-10-06T11:41:32.095Z,101385.36
2022-10-06T11:47:35.931Z,101390.86
2022-10-06T11:50:37.016Z,101384.58
2022-10-06T11:53:53.998Z,101392.33
2022-10-06T11:56:34.455Z,101396.63
2022-10-06T11:59:12.725Z,101399.09
2022-10-06T12:01:43.621Z,101407.32
2022-10-06T12:04:10.277Z,101413.73
2022-10-06T12:06:45.518Z,101411.39
2022-10-06T12:09:29.530Z,101418.60
2022-10-06T12:12:20.798Z,101419.11
2022-10-06T12:18:18.100Z,101421.88
2022-10-06T12:20:49.541Z,101420.82
2022-10-06T12:23:38.379Z,101419.35
2022-10-06T12:26:43.391Z,101421.06
2022-10-06T12:29:20.355Z,101425.23
2022-10-06T12:32:06.957Z,101425.95
2022-10-06T12:34:55.753Z,101425.80
2022-10-06T12:37:36.103Z,101433.77
2022-10-06T12:40:40.351Z,101425.75
2022-10-06T12:43:11.715Z,101429.91
2022-10-06T12:45:45.918Z,101433.67
2022-10-06T12:48:38.512Z,101436.88
2022-10-06T12:51:18.317Z,101444.52
2022-10-06T12:53:50.630Z,101441.11
2022-10-06T12:56:34.328Z,101440.63
2022-10-06T12:59:24.349Z,101436.84
2022-10-06T13:01:59.261Z,101439.84
2022-10-06T13:04:43.558Z,101439.24
2022-10-06T13:07:13.850Z,101432.83
2022-10-06T13:09:40.779Z,101430.58
2022-10-06T13:12:31.073Z,101426.12
2022-10-06T13:15:17.475Z,101429.49
2022-10-06T13:18:15.349Z,101433.77
2022-10-06T13:20:55.032Z,101432.15
2022-10-06T13:23:27.939Z,101429.69
2022-10-06T13:26:05.249Z,101435.21
2022-10-06T13:28:33.702Z,101442.89
2022-10-06T13:31:05.797Z,101443.14
2022-10-06T13:33:40.448Z,101444.59
2022-10-06T13:36:08.593Z,101445.75
2022-10-06T13:38:36.207Z,101444.36
2022-10-06T13:41:12.992Z,101441.23
2022-10-06T13:43:44.903Z,101449.63
2022-10-06T13:46:15.424Z,101451.92
2022-10-06T13:48:59.360Z,101455.66
2022-10-06T13:51:31.280Z,101453.52
2022-10-06T13:54:04.049Z,101451.20
2022-10-06T13:56:38.259Z,101449.36
2022-10-06T13:59:30.360Z,101449.27
2022-10-06T14:02:17.334Z,101450.36
2022-10-06T14:05:04.452Z,101453.52
2022-10-06T14:07:31.918Z,101452.95
2022-10-06T14:09:58.367Z,101452.64
2022-10-06T14:12:26.246Z,101456.54
2022-10-06T14:14:56.068Z,101451.98
2022-10-06T14:17:25.482Z,101452.86
2022-10-06T14:19:51.999Z,101456.20
2022-10-06T14:22:31.746Z,101461.60
2022-10-06T14:24:59.518Z,101468.30
2022-10-06T14:27:26.306Z,101462.35
2022-10-06T14:29:56.536Z,101467.30
2022-10-06T14:32:23.294Z,101464.71
2022-10-06T14:34:50.812Z,101468.39
2022-10-06T14:37:18.014Z,101469.53
2022-10-06T14:39:45.495Z,101468.58
2022-10-06T14:42:14.444Z,101467.39
2022-10-06T14:44:42.946Z,101468.15
2022-10-06T14:47:12.097Z,101470.31
2022-10-06T14:49:38.795Z,101474.66
2022-10-06T14:52:09.922Z,101483.35
2022-10-06T14:54:38.227Z,101484.69
2022-10-06T14:57:04.845Z,101486.07
2022-10-06T14:59:33.238Z,101485.47
2022-10-06T15:02:04.301Z,101481.78
2022-10-06T15:04:31.240Z,101489.61
2022-10-06T15:07:18.537Z,101485.42
2022-10-06T15:09:47.687Z,101484.41
2022-10-06T15:12:16.798Z,101484.98
2022-10-06T15:14:44.486Z,101482.70
2022-10-06T15:17:11.220Z,101476.50
2022-10-06T15:19:40.184Z,101479.31
2022-10-06T15:22:08.440Z,101479.96
2022-10-06T15:24:34.942Z,101481.88
2022-10-06T15:27:25.011Z,101484.38
2022-10-06T15:29:52.335Z,101488.69
2022-10-06T15:32:18.830Z,101489.29
2022-10-06T15:34:45.367Z,101490.59
2022-10-06T15:37:11.883Z,101495.25
2022-10-06T15:39:38.381Z,101496.63
2022-10-06T15:42:05.454Z,101495.59
2022-10-06T15:44:33.879Z,101504.16
2022-10-06T15:47:01.175Z,101505.95
2022-10-06T15:49:37.563Z,101501.58
2022-10-06T15:52:13.049Z,101501.75
2022-10-06T15:54:41.865Z,101503.21
2022-10-06T15:57:19.434Z,101505.21
2022-10-06T15:59:49.583Z,101505.42
2022-10-06T16:02:17.470Z,101511.38
2022-10-06T16:05:01.930Z,101509.17
2022-10-06T16:07:42.471Z,101513.34
2022-10-06T16:10:11.262Z,101519.12
2022-10-06T16:12:45.473Z,101517.14
2022-10-06T16:15:12.213Z,101518.35
2022-10-06T16:17:42.736Z,101519.09
2022-10-06T16:20:10.797Z,101523.23
2022-10-06T16:22:37.699Z,101526.23
2022-10-06T16:25:05.667Z,101530.27
2022-10-06T16:27:34.901Z,101531.52
2022-10-06T16:30:01.555Z,101535.60
2022-10-06T16:32:31.418Z,101538.15
2022-10-06T16:34:58.067Z,101544.52
2022-10-06T16:37:25.587Z,101542.05
2022-10-06T16:39:52.304Z,101541.45
2022-10-06T16:42:19.136Z,101540.15
2022-10-06T16:44:45.678Z,101548.86
2022-10-06T16:47:15.394Z,101552.33
2022-10-06T16:49:41.893Z,101556.60
2022-10-06T16:52:09.885Z,101562.03
2022-10-06T16:54:36.378Z,101559.93
2022-10-06T16:57:07.015Z,101562.45
2022-10-06T16:59:33.745Z,101561.32
2022-10-06T17:02:03.064Z,101572.25
2022-10-06T17:04:31.355Z,101575.17
2022-10-06T17:07:02.667Z,101581.61
2022-10-06T17:09:33.670Z,101589.13
2022-10-06T17:12:03.620Z,101587.71
2022-10-06T17:14:31.605Z,101595.75
2022-10-06T17:17:01.522Z,101594.13
2022-10-06T17:19:29.361Z,101594.98
2022-10-06T17:21:59.475Z,101594.77
2022-10-06T17:24:30.566Z,101598.26
2022-10-06T17:26:58.461Z,101599.50
2022-10-06T17:29:30.950Z,101596.32
2022-10-06T17:31:59.138Z,101604.09
2022-10-06T17:34:31.720Z,101604.98
2022-10-06T17:37:04.528Z,101598.10
2022-10-06T17:40:44.793Z,101599.71
2022-10-06T17:43:14.913Z,101601.77
2022-10-06T17:45:42.794Z,101600.20
2022-10-06T17:48:12.253Z,101599.48
2022-10-06T17:50:40.055Z,101600.75
2022-10-06T17:53:07.909Z,101600.91
2022-10-06T17:55:36.704Z,101606.65
2022-10-06T17:58:08.059Z,101612.89
2022-10-06T18:01:46.445Z,101615.52
2022-10-06T18:04:16.491Z,101621.43
2022-10-06T18:06:47.677Z,101621.21
2022-10-06T18:09:19.401Z,101624.87
2022-10-06T18:11:55.880Z,101624.33
2022-10-06T18:14:33.972Z,101622.67
2022-10-06T18:17:05.928Z,101627.18
2022-10-06T18:19:38.403Z,101625.77
2022-10-06T18:22:11.679Z,101625.47
2022-10-06T18:24:41.615Z,101622.88
2022-10-06T18:27:14.089Z,101624.80
2022-10-06T18:29:43.790Z,101625.14
2022-10-06T18:38:05.173Z,101636.00
2022-10-06T18:40:32.951Z,101635.61
2022-10-06T18:43:03.069Z,101633.55
2022-10-06T18:45:53.730Z,101634.42
2022-10-06T18:48:40.230Z,101637.00
2022-10-06T18:51:08.209Z,101642.14
2022-10-06T18:53:39.260Z,101638.98
2022-10-06T18:56:08.249Z,101641.56
2022-10-06T18:58:44.324Z,101642.11
2022-10-06T19:01:13.550Z,101649.50
2022-10-06T19:03:41.663Z,101653.61
2022-10-06T19:06:09.604Z,101652.34
2022-10-06T19:08:37.678Z,101654.11
2022-10-06T19:11:38.876Z,101656.17
2022-10-06T19:14:07.175Z,101654.90
2022-10-06T19:16:35.203Z,101655.88
2022-10-06T19:19:06.501Z,101655.46
2022-10-06T19:21:36.929Z,101662.12
2022-10-06T19:24:05.585Z,101662.15
2022-10-06T19:26:33.906Z,101665.02
2022-10-06T19:29:05.026Z,101663.67
2022-10-06T19:31:32.846Z,101664.74
2022-10-06T19:34:04.164Z,101669.32
2022-10-06T19:36:32.512Z,101674.29
2022-10-06T19:39:04.171Z,101677.91
2022-10-06T19:41:51.758Z,101681.45
2022-10-06T19:44:19.559Z,101681.83
2022-10-06T19:46:47.645Z,101681.41
2022-10-06T19:49:17.175Z,101678.81
2022-10-06T19:51:45.376Z,101679.26
2022-10-06T19:54:13.483Z,101681.02
2022-10-06T19:56:41.707Z,101685.09
2022-10-06T19:59:14.291Z,101685.34
2022-10-06T20:01:42.772Z,101686.69
2022-10-06T20:04:12.993Z,101680.43
2022-10-06T20:06:42.263Z,101686.48
2022-10-06T20:09:14.993Z,101686.77
2022-10-06T20:11:45.196Z,101684.69
2022-10-06T20:14:23.501Z,101684.24
2022-10-06T20:16:54.470Z,101688.56
2022-10-06T20:19:25.623Z,101690.98
2022-10-06T20:21:53.595Z,101693.58
2022-10-06T20:24:24.497Z,101693.06
2022-10-06T20:26:53.772Z,101694.20
2022-10-06T20:29:25.240Z,101697.88
2022-10-06T20:31:55.278Z,101700.70
2022-10-06T20:34:32.482Z,101698.58
2022-10-06T20:37:04.904Z,101698.90
2022-10-06T20:39:55.208Z,101699.73
2022-10-06T20:42:23.260Z,101696.91
2022-10-06T20:44:51.131Z,101700.75
2022-10-06T20:47:19.196Z,101701.30
2022-10-06T20:49:47.218Z,101700.61
2022-10-06T20:52:15.178Z,101703.62
2022-10-06T20:54:43.367Z,101701.13
2022-10-06T20:57:13.018Z,101707.88
2022-10-06T20:59:45.268Z,101710.23
2022-10-06T21:02:16.606Z,101710.82
2022-10-06T21:04:45.246Z,101708.66
2022-10-06T21:07:13.045Z,101706.80
2022-10-06T21:09:40.795Z,101710.02
2022-10-06T21:12:09.219Z,101707.96
2022-10-06T21:14:37.844Z,101708.15
2022-10-06T21:17:08.125Z,101710.94
2022-10-06T21:19:37.675Z,101710.44
2022-10-06T21:22:06.099Z,101711.02
2022-10-06T21:24:36.585Z,101708.51
2022-10-06T21:27:04.515Z,101709.12
2022-10-06T21:29:32.335Z,101709.06
2022-10-06T21:32:00.417Z,101710.85
2022-10-06T21:34:28.167Z,101710.65
2022-10-06T21:36:56.153Z,101708.63
2022-10-06T21:39:23.925Z,101707.67
2022-10-06T21:41:51.688Z,101711.23
2022-10-06T21:44:19.677Z,101707.44
2022-10-06T21:46:49.443Z,101710.61
2022-10-06T21:49:19.725Z,101709.27
2022-10-06T21:51:49.868Z,101714.40
2022-10-06T21:54:18.555Z,101715.89
2022-10-06T21:56:47.195Z,101713.64
2022-10-06T21:59:15.349Z,101718.98
2022-10-06T22:01:45.359Z,101717.84
2022-10-06T22:04:14.487Z,101722.79
2022-10-06T22:06:44.619Z,101724.08
2022-10-06T22:09:15.171Z,101724.56
2022-10-06T22:11:44.146Z,101718.30
2022-10-06T22:14:14.115Z,101712.40
2022-10-06T22:16:42.828Z,101714.62
2022-10-06T22:19:18.464Z,101720.77
2022-10-06T22:21:48.405Z,101720.54
2022-10-06T22:24:20.691Z,101718.66
2022-10-06T22:26:49.395Z,101711.70
2022-10-06T22:29:19.010Z,101713.92
2022-10-06T22:31:49.103Z,101717.02
2022-10-06T22:34:19.713Z,101716.66
2022-10-06T22:36:48.406Z,101713.52
2022-10-06T22:39:16.674Z,101705.77
2022-10-06T22:41:45.344Z,101708.16
2022-10-06T22:44:13.121Z,101708.21
2022-10-06T22:46:41.507Z,101711.48
2022-10-06T22:49:09.596Z,101705.56
2022-10-06T22:51:39.612Z,101703.87
2022-10-06T22:54:10.056Z,101701.63
2022-10-06T22:56:39.451Z,101702.23
2022-10-06T22:59:07.155Z,101701.50
2022-10-06T23:01:35.070Z,101701.78
2022-10-06T23:04:02.930Z,101698.59
2022-10-06T23:06:31.570Z,101698.21
2022-10-06T23:08:59.604Z,101697.32
2022-10-06T23:11:27.960Z,101700.81
2022-10-06T23:13:56.549Z,101702.74
2022-10-06T23:16:24.968Z,101701.84
2022-10-06T23:18:52.835Z,101699.55
2022-10-06T23:21:23.914Z,101701.27
2022-10-06T23:23:54.152Z,101703.13
2022-10-06T23:26:23.234Z,101700.72
2022-10-06T23:28:56.341Z,101701.69
2022-10-06T23:31:25.216Z,101701.73
2022-10-06T23:33:54.184Z,101694.37
2022-10-06T23:36:22.164Z,101696.99
2022-10-06T23:38:50.148Z,101702.06
2022-10-06T23:41:18.852Z,101700.93
2022-10-06T23:43:46.593Z,101693.77
2022-10-06T23:46:14.894Z,101693.70
2022-10-06T23:48:44.184Z,101687.75
2022-10-06T23:51:15.351Z,101693.00
2022-10-06T23:53:46.013Z,101695.27
2022-10-06T23:56:13.839Z,101700.70
2022-10-06T23:58:42.945Z,101695.85
